METAR Data
IDs: Format: Raw Decoded Include TAF

Data at: 0017 UTC 19 Oct 2019

PTYA 182355Z VRB05KT 12SM FEW016 SCT130 BKN300 30/25 A2985 RMK SLP110 8/171 T02960248 10296 20250 51005